createdAt,value
2019-01-25T00:00:27.466Z,54.37
2019-01-25T00:02:57.206Z,55.67
2019-01-25T00:05:26.346Z,54.57
2019-01-25T00:07:55.367Z,50.77
2019-01-25T00:10:24.975Z,52.77
2019-01-25T00:12:54.085Z,53.37
2019-01-25T00:15:23.809Z,53.10
2019-01-25T00:17:53.007Z,48.97
2019-01-25T00:20:22.727Z,42.83
2019-01-25T00:22:55.926Z,42.10
2019-01-25T00:25:27.355Z,40.87
2019-01-25T00:27:56.787Z,40.77
2019-01-25T00:30:26.385Z,46.33
2019-01-25T00:32:55.749Z,47.90
2019-01-25T00:35:25.105Z,45.53
2019-01-25T00:37:54.806Z,46.73
2019-01-25T00:40:23.927Z,47.63
2019-01-25T00:43:12.646Z,46.10
2019-01-25T00:45:42.547Z,43.23
2019-01-25T00:48:11.866Z,44.43
2019-01-25T00:50:43.487Z,45.63
2019-01-25T00:55:55.009Z,47.43
2019-01-25T00:58:24.626Z,49.17
2019-01-25T01:00:53.900Z,43.57
2019-01-25T01:03:26.341Z,41.63
2019-01-25T01:05:55.822Z,50.77
2019-01-25T01:08:25.581Z,44.77
2019-01-25T01:11:06.860Z,51.17
2019-01-25T01:13:36.880Z,49.67
2019-01-25T01:16:25.980Z,49.27
2019-01-25T01:19:12.241Z,51.53
2019-01-25T01:21:36.982Z,48.20
2019-01-25T01:24:06.301Z,57.20
2019-01-25T01:27:01.000Z,55.10
2019-01-25T01:29:30.280Z,59.70
2019-01-25T01:32:00.260Z,50.40
2019-01-25T01:34:29.815Z,53.77
2019-01-25T01:37:00.396Z,55.30
2019-01-25T01:39:31.200Z,52.13
2019-01-25T01:42:00.577Z,54.17
2019-01-25T01:44:29.458Z,57.30
2019-01-25T01:46:58.877Z,57.00
2019-01-25T01:49:29.937Z,55.40
2019-01-25T01:52:00.677Z,51.07
2019-01-25T01:54:31.678Z,57.33
2019-01-25T01:57:00.696Z,51.90
2019-01-25T01:59:29.857Z,57.47
2019-01-25T02:02:02.535Z,52.33
2019-01-25T02:04:32.095Z,58.03
2019-01-25T02:07:05.135Z,59.27
2019-01-25T02:09:35.956Z,58.43
2019-01-25T02:12:05.476Z,54.87
2019-01-25T02:14:36.076Z,60.80
2019-01-25T02:17:05.237Z,53.57
2019-01-25T02:19:35.516Z,51.67
2019-01-25T02:22:05.036Z,59.93
2019-01-25T02:24:34.137Z,57.50
2019-01-25T02:27:04.916Z,59.03
2019-01-25T02:29:39.115Z,59.67
2019-01-25T02:32:08.737Z,63.57
2019-01-25T02:34:38.416Z,53.97
2019-01-25T02:37:07.737Z,53.70
2019-01-25T02:39:37.217Z,57.83
2019-01-25T02:42:06.735Z,56.73
2019-01-25T02:44:42.399Z,65.43
2019-01-25T02:47:15.317Z,57.07
2019-01-25T02:49:44.597Z,62.13
2019-01-25T02:52:14.055Z,61.30
2019-01-25T02:54:43.537Z,62.87
2019-01-25T02:57:21.840Z,55.13
2019-01-25T03:00:07.736Z,51.00
2019-01-25T03:02:38.658Z,55.03
2019-01-25T03:05:29.855Z,49.73
2019-01-25T03:07:59.697Z,51.60
2019-01-25T03:10:29.962Z,57.83
2019-01-25T03:13:00.796Z,53.33
2019-01-25T03:15:44.778Z,44.53
2019-01-25T03:18:21.079Z,50.77
2019-01-25T03:20:50.538Z,51.70
2019-01-25T03:23:25.397Z,52.80
2019-01-25T03:25:54.581Z,50.00
2019-01-25T03:28:23.997Z,48.87
2019-01-25T03:30:53.378Z,50.07
2019-01-25T03:33:26.206Z,53.23
2019-01-25T03:35:57.439Z,55.80
2019-01-25T03:38:27.078Z,56.90
2019-01-25T03:40:56.079Z,57.73
2019-01-25T03:43:25.578Z,49.87
2019-01-25T03:45:54.858Z,52.47
2019-01-25T03:48:24.239Z,55.07
2019-01-25T03:50:53.676Z,50.37
2019-01-25T03:53:23.197Z,51.30
2019-01-25T03:55:52.978Z,57.13
2019-01-25T03:58:22.697Z,47.83
2019-01-25T04:00:52.765Z,50.03
2019-01-25T04:03:21.546Z,51.83
2019-01-25T04:05:51.346Z,53.03
2019-01-25T04:08:20.584Z,54.53
2019-01-25T04:10:51.524Z,50.90
2019-01-25T04:15:53.267Z,49.27
2019-01-25T04:18:22.624Z,50.17
2019-01-25T04:20:53.305Z,53.20
2019-01-25T04:23:24.164Z,52.93
2019-01-25T04:25:56.824Z,52.73
2019-01-25T04:28:26.443Z,59.07
2019-01-25T04:30:57.345Z,54.40
2019-01-25T04:33:26.704Z,62.90
2019-01-25T04:35:59.344Z,55.53
2019-01-25T04:38:28.790Z,52.03
2019-01-25T04:40:57.725Z,52.93
2019-01-25T04:43:26.844Z,56.23
2019-01-25T04:45:58.412Z,56.00
2019-01-25T04:48:27.504Z,55.43
2019-01-25T04:50:58.545Z,62.23
2019-01-25T04:53:30.236Z,61.37
2019-01-25T04:56:00.221Z,56.27
2019-01-25T04:58:30.036Z,63.23
2019-01-25T05:01:03.047Z,62.17
2019-01-25T05:03:34.731Z,65.87
2019-01-25T05:06:03.969Z,58.80
2019-01-25T05:08:34.889Z,60.87
2019-01-25T05:11:08.073Z,54.43
2019-01-25T05:13:37.690Z,61.93
2019-01-25T05:16:13.217Z,58.57
2019-01-25T05:18:45.508Z,64.57
2019-01-25T05:21:19.701Z,64.37
2019-01-25T05:23:50.728Z,61.37
2019-01-25T05:26:20.141Z,62.47
2019-01-25T05:28:50.937Z,69.00
2019-01-25T05:31:19.999Z,63.17
2019-01-25T05:33:54.078Z,77.50
2019-01-25T05:36:25.380Z,66.83
2019-01-25T05:38:58.617Z,67.70
2019-01-25T05:41:29.266Z,69.60
2019-01-25T05:43:59.015Z,72.30
2019-01-25T05:46:29.436Z,74.03
2019-01-25T05:48:58.876Z,75.67
2019-01-25T05:51:33.531Z,66.90
2019-01-25T05:53:59.255Z,73.17
2019-01-25T05:56:28.837Z,84.87
2019-01-25T05:58:58.396Z,90.03
2019-01-25T06:01:27.803Z,83.90
2019-01-25T06:04:00.357Z,78.10
2019-01-25T06:06:29.757Z,75.53
2019-01-25T06:08:59.676Z,86.73
2019-01-25T06:11:35.580Z,81.77
2019-01-25T06:14:03.436Z,91.10
2019-01-25T06:16:34.119Z,87.23
2019-01-25T06:19:06.175Z,86.13
2019-01-25T06:21:35.404Z,88.43
2019-01-25T06:24:04.788Z,80.23
2019-01-25T06:26:43.064Z,84.33
2019-01-25T06:29:13.138Z,91.03
2019-01-25T06:31:48.797Z,92.50
2019-01-25T06:34:18.258Z,98.17
2019-01-25T06:36:49.061Z,100.53
2019-01-25T06:39:19.679Z,95.63
2019-01-25T06:41:53.196Z,92.70
2019-01-25T06:44:23.637Z,83.73
2019-01-25T06:46:55.745Z,83.63
2019-01-25T06:49:29.575Z,84.77
2019-01-25T06:52:00.638Z,84.33
2019-01-25T06:54:32.956Z,89.07
2019-01-25T06:57:05.060Z,83.87
2019-01-25T06:59:34.593Z,89.70
2019-01-25T07:02:07.016Z,165.30
2019-01-25T07:04:36.003Z,97.67
2019-01-25T07:07:08.111Z,87.30
2019-01-25T07:09:38.058Z,96.10
2019-01-25T07:12:08.702Z,92.30
2019-01-25T07:14:37.762Z,87.33
2019-01-25T07:17:07.203Z,107.63
2019-01-25T07:19:37.819Z,89.10
2019-01-25T07:22:07.361Z,105.50
2019-01-25T07:24:36.698Z,100.30
2019-01-25T07:27:05.978Z,96.03
2019-01-25T07:29:36.620Z,92.90
2019-01-25T07:32:05.757Z,91.97
2019-01-25T07:34:34.878Z,107.47
2019-01-25T07:37:04.316Z,101.40
2019-01-25T07:39:37.026Z,118.60
2019-01-25T07:42:07.456Z,117.23
2019-01-25T07:44:37.956Z,101.93
2019-01-25T07:47:06.938Z,104.33
2019-01-25T07:49:38.877Z,105.43
2019-01-25T07:52:08.318Z,103.73
2019-01-25T07:54:37.537Z,104.67
2019-01-25T07:57:10.106Z,99.90
2019-01-25T07:59:39.202Z,95.67
2019-01-25T08:02:24.388Z,98.97
2019-01-25T08:04:53.497Z,127.60
2019-01-25T08:07:24.820Z,90.40
2019-01-25T08:09:53.915Z,97.03
2019-01-25T08:12:23.025Z,134.93
2019-01-25T08:14:56.915Z,106.80
2019-01-25T08:17:25.958Z,109.33
2019-01-25T08:19:59.452Z,95.50
2019-01-25T08:22:28.692Z,108.77
2019-01-25T08:24:57.677Z,104.10
2019-01-25T08:27:28.489Z,104.50
2019-01-25T08:29:57.757Z,99.63
2019-01-25T08:32:31.958Z,107.43
2019-01-25T08:35:02.760Z,88.23
2019-01-25T08:37:32.471Z,100.63
2019-01-25T08:40:02.097Z,92.03
2019-01-25T08:42:31.297Z,105.80
2019-01-25T08:45:00.607Z,101.60
2019-01-25T08:47:31.867Z,88.67
2019-01-25T08:50:01.675Z,91.63
2019-01-25T08:52:31.145Z,98.83
2019-01-25T08:55:04.988Z,92.07
2019-01-25T08:57:34.180Z,106.50
2019-01-25T09:00:03.189Z,110.67
2019-01-25T09:02:33.899Z,116.60
2019-01-25T09:05:02.943Z,112.80
2019-01-25T09:07:32.800Z,106.73
2019-01-25T09:10:02.315Z,100.03
2019-01-25T09:12:31.600Z,104.77
2019-01-25T09:15:00.796Z,80.23
2019-01-25T09:17:30.575Z,86.40
2019-01-25T09:20:03.377Z,99.20
2019-01-25T09:22:34.236Z,84.97
2019-01-25T09:25:03.115Z,87.53
2019-01-25T09:27:33.755Z,85.83
2019-01-25T09:30:05.817Z,89.10
2019-01-25T09:32:35.079Z,96.10
2019-01-25T09:35:06.888Z,88.00
2019-01-25T09:37:36.237Z,85.90
2019-01-25T09:40:12.336Z,82.27
2019-01-25T09:42:41.583Z,82.23
2019-01-25T09:45:14.095Z,87.33
2019-01-25T09:47:43.356Z,83.90
2019-01-25T09:50:25.278Z,80.70
2019-01-25T09:52:54.225Z,80.50
2019-01-25T09:55:28.277Z,79.27
2019-01-25T09:58:00.317Z,75.80
2019-01-25T10:00:33.601Z,85.43
2019-01-25T10:03:02.702Z,81.23
2019-01-25T10:05:32.157Z,76.87
2019-01-25T10:08:01.598Z,71.57
2019-01-25T10:10:30.937Z,75.20
2019-01-25T10:13:01.117Z,66.93
2019-01-25T10:15:32.477Z,73.80
2019-01-25T10:18:01.917Z,69.33
2019-01-25T10:20:31.380Z,80.90
2019-01-25T10:23:02.435Z,72.37
2019-01-25T10:25:31.516Z,76.87
2019-01-25T10:28:00.603Z,78.57
2019-01-25T10:30:30.817Z,79.43
2019-01-25T10:33:03.577Z,69.40
2019-01-25T10:35:43.537Z,73.67
2019-01-25T10:38:17.438Z,70.57
2019-01-25T10:40:47.028Z,71.07
2019-01-25T10:43:16.797Z,69.27
2019-01-25T10:45:46.879Z,69.63
2019-01-25T10:48:19.317Z,71.17
2019-01-25T10:50:54.976Z,71.00
2019-01-25T10:53:27.038Z,71.93
2019-01-25T10:55:56.756Z,68.23
2019-01-25T10:58:28.882Z,62.43
2019-01-25T11:00:59.848Z,72.97
2019-01-25T11:03:29.269Z,69.13
2019-01-25T11:05:59.673Z,63.50
2019-01-25T11:08:29.424Z,69.57
2019-01-25T11:10:58.865Z,69.70
2019-01-25T11:13:31.901Z,76.27
2019-01-25T11:16:01.580Z,74.33
2019-01-25T11:18:31.041Z,70.00
2019-01-25T11:21:00.441Z,73.60
2019-01-25T11:23:35.518Z,66.90
2019-01-25T11:26:09.907Z,72.53
2019-01-25T11:28:38.940Z,66.57
2019-01-25T11:31:08.002Z,75.40
2019-01-25T11:33:37.262Z,66.53
2019-01-25T11:36:06.341Z,73.53
2019-01-25T11:38:36.682Z,73.63
2019-01-25T11:41:05.721Z,69.90
2019-01-25T11:43:35.221Z,75.43
2019-01-25T11:46:04.789Z,72.80
2019-01-25T11:48:34.286Z,68.03
2019-01-25T11:51:03.686Z,66.83
2019-01-25T11:53:32.783Z,64.70
2019-01-25T11:56:01.981Z,70.03
2019-01-25T11:58:30.920Z,70.37
2019-01-25T12:01:00.469Z,70.40
2019-01-25T12:03:29.948Z,77.13
2019-01-25T12:05:59.681Z,69.03
2019-01-25T12:08:29.299Z,75.20
2019-01-25T12:10:58.296Z,72.13
2019-01-25T12:13:27.458Z,71.37
2019-01-25T12:15:56.795Z,68.07
2019-01-25T12:18:27.294Z,70.63
2019-01-25T12:20:56.619Z,66.43
2019-01-25T12:23:26.078Z,69.13
2019-01-25T12:25:55.258Z,71.20
2019-01-25T12:28:24.246Z,72.17
2019-01-25T12:30:54.065Z,73.23
2019-01-25T12:33:23.266Z,70.70
2019-01-25T12:35:52.329Z,70.17
2019-01-25T12:38:21.396Z,70.87
2019-01-25T12:40:50.878Z,70.57
2019-01-25T12:43:24.416Z,75.60
2019-01-25T12:45:54.216Z,64.33
2019-01-25T12:48:23.339Z,69.53
2019-01-25T12:50:58.541Z,69.73
2019-01-25T12:53:27.683Z,72.53
2019-01-25T12:56:00.189Z,74.17
2019-01-25T12:58:30.828Z,68.97
2019-01-25T13:01:01.923Z,65.57
2019-01-25T13:03:31.500Z,76.00
2019-01-25T13:06:00.579Z,68.37
2019-01-25T13:08:29.918Z,66.00
2019-01-25T13:11:04.619Z,69.53
2019-01-25T13:13:34.142Z,75.47
2019-01-25T13:16:05.124Z,66.43
2019-01-25T13:18:41.225Z,66.07
2019-01-25T13:21:13.404Z,69.37
2019-01-25T13:23:42.703Z,67.47
2019-01-25T13:26:12.164Z,65.17
2019-01-25T13:28:41.969Z,73.90
2019-01-25T13:31:13.007Z,67.90
2019-01-25T13:33:42.384Z,65.53
2019-01-25T13:36:11.769Z,62.40
2019-01-25T13:38:42.548Z,68.17
2019-01-25T13:41:11.627Z,64.40
2019-01-25T13:43:40.848Z,71.67
2019-01-25T13:46:12.788Z,64.90
2019-01-25T13:48:45.125Z,66.27
2019-01-25T13:51:17.325Z,67.60
2019-01-25T13:53:46.886Z,63.53
2019-01-25T13:56:19.384Z,64.53
2019-01-25T13:58:51.828Z,74.10
2019-01-25T14:01:21.048Z,66.40
2019-01-25T14:03:50.138Z,59.37
2019-01-25T14:06:19.517Z,58.17
2019-01-25T14:08:48.943Z,60.47
2019-01-25T14:11:18.584Z,59.97
2019-01-25T14:13:48.006Z,52.43
2019-01-25T14:16:21.447Z,57.83
2019-01-25T14:18:52.230Z,62.33
2019-01-25T14:21:21.404Z,57.97
2019-01-25T14:23:53.585Z,53.67
2019-01-25T14:26:23.026Z,56.30
2019-01-25T14:28:52.064Z,58.47
2019-01-25T14:31:25.624Z,39.17
2019-01-25T14:33:56.802Z,40.70
2019-01-25T14:36:26.001Z,37.70
2019-01-25T14:38:56.863Z,53.83
2019-01-25T14:41:28.012Z,41.50
2019-01-25T14:43:57.126Z,44.40
2019-01-25T14:46:26.224Z,53.87
2019-01-25T14:49:05.288Z,59.50
2019-01-25T14:51:34.565Z,59.17
2019-01-25T14:54:06.740Z,54.27
2019-01-25T14:56:36.277Z,60.23
2019-01-25T14:59:06.876Z,60.13
2019-01-25T15:01:39.183Z,67.23
2019-01-25T15:04:08.823Z,65.70
2019-01-25T15:06:41.544Z,50.40
2019-01-25T15:09:11.663Z,53.37
2019-01-25T15:11:42.464Z,65.80
2019-01-25T15:14:14.884Z,69.10
2019-01-25T15:16:45.770Z,71.17
2019-01-25T15:19:19.304Z,59.07
2019-01-25T15:21:49.125Z,67.60
2019-01-25T15:24:19.861Z,64.83
2019-01-25T15:26:51.704Z,67.27
2019-01-25T15:29:21.288Z,67.80
2019-01-25T15:31:52.163Z,65.87
2019-01-25T15:34:21.423Z,66.47
2019-01-25T15:36:50.404Z,66.93
2019-01-25T15:39:22.905Z,62.40
2019-01-25T15:41:52.204Z,60.40
2019-01-25T15:44:22.784Z,53.27
2019-01-25T15:46:52.463Z,58.13
2019-01-25T15:49:21.886Z,54.43
2019-01-25T15:51:52.922Z,57.63
2019-01-25T15:54:23.927Z,56.67
2019-01-25T15:56:54.564Z,55.37
2019-01-25T15:59:26.577Z,60.40
2019-01-25T16:01:55.727Z,57.10
2019-01-25T16:04:34.620Z,63.50
2019-01-25T16:07:00.469Z,66.33
2019-01-25T16:09:29.835Z,62.00
2019-01-25T16:12:02.209Z,58.43
2019-01-25T16:14:33.229Z,61.93
2019-01-25T16:17:02.369Z,58.13
2019-01-25T16:19:35.701Z,59.93
2019-01-25T16:22:07.038Z,67.87
2019-01-25T16:24:39.376Z,62.07
2019-01-25T16:27:11.036Z,67.83
2019-01-25T16:29:40.475Z,66.53
2019-01-25T16:32:09.935Z,57.73
2019-01-25T16:34:40.376Z,62.47
2019-01-25T16:37:09.756Z,69.03
2019-01-25T16:39:39.135Z,70.00
2019-01-25T16:42:08.644Z,67.53
2019-01-25T16:44:38.205Z,67.13
2019-01-25T16:47:08.139Z,62.27
2019-01-25T16:49:38.918Z,65.73
2019-01-25T16:52:07.996Z,66.43
2019-01-25T16:54:37.418Z,63.63
2019-01-25T16:57:06.798Z,64.13
2019-01-25T16:59:36.638Z,65.30
2019-01-25T17:02:07.427Z,68.63
2019-01-25T17:04:36.785Z,67.50
2019-01-25T17:07:06.186Z,65.60
2019-01-25T17:09:35.498Z,66.47
2019-01-25T17:12:06.296Z,61.97
2019-01-25T17:14:37.636Z,69.93
2019-01-25T17:17:06.923Z,63.53
2019-01-25T17:19:36.136Z,67.77
2019-01-25T17:22:06.756Z,62.90
2019-01-25T17:24:36.056Z,65.17
2019-01-25T17:27:05.899Z,66.77
2019-01-25T17:29:35.037Z,63.93
2019-01-25T17:32:05.182Z,66.97
2019-01-25T17:34:34.860Z,58.93
2019-01-25T17:37:03.880Z,52.30
2019-01-25T17:39:33.440Z,43.37
2019-01-25T17:42:02.831Z,47.93
2019-01-25T17:44:32.332Z,46.10
2019-01-25T17:47:03.302Z,32.97
2019-01-25T17:49:32.504Z,30.07
2019-01-25T17:52:02.224Z,28.50
2019-01-25T17:54:31.402Z,24.23
2019-01-25T17:57:03.699Z,23.47
2019-01-25T17:59:33.266Z,21.63
2019-01-25T18:02:02.666Z,24.97
2019-01-25T18:04:34.971Z,22.83
2019-01-25T18:07:04.245Z,24.70
2019-01-25T18:09:33.564Z,22.83
2019-01-25T18:12:09.265Z,24.13
2019-01-25T18:14:49.031Z,25.07
2019-01-25T18:17:15.227Z,22.40
2019-01-25T18:19:44.565Z,20.87
2019-01-25T18:22:13.745Z,16.80
2019-01-25T18:24:43.265Z,19.33
2019-01-25T18:27:13.921Z,18.50
2019-01-25T18:29:44.856Z,17.50
2019-01-25T18:32:20.000Z,17.83
2019-01-25T18:34:51.079Z,18.63
2019-01-25T18:37:22.198Z,18.80
2019-01-25T18:39:52.020Z,23.93
2019-01-25T18:42:21.699Z,22.63
2019-01-25T18:44:56.818Z,18.17
2019-01-25T18:47:25.143Z,19.80
2019-01-25T18:49:54.516Z,17.67
2019-01-25T18:52:26.855Z,19.70
2019-01-25T18:54:57.427Z,17.57
2019-01-25T18:57:30.062Z,18.97
2019-01-25T18:59:59.690Z,19.93
2019-01-25T19:02:28.757Z,19.87
2019-01-25T19:04:59.577Z,20.07
2019-01-25T19:07:31.838Z,15.10
2019-01-25T19:10:05.780Z,15.33
2019-01-25T19:12:34.959Z,16.10
2019-01-25T19:15:13.009Z,17.93
2019-01-25T19:17:43.638Z,15.53
2019-01-25T19:20:19.719Z,19.20
2019-01-25T19:22:48.980Z,17.30
2019-01-25T19:25:18.507Z,21.77
2019-01-25T19:27:49.043Z,15.27
2019-01-25T19:30:21.640Z,17.60
2019-01-25T19:32:50.896Z,17.77
2019-01-25T19:35:22.685Z,17.00
2019-01-25T19:37:55.156Z,15.57
2019-01-25T19:40:36.118Z,18.30
2019-01-25T19:45:38.188Z,14.53
2019-01-25T19:48:08.339Z,14.03
2019-01-25T19:50:38.995Z,16.33
2019-01-25T19:53:27.796Z,17.07
2019-01-25T19:55:56.996Z,17.10
2019-01-25T19:58:28.097Z,18.07
2019-01-25T20:00:57.567Z,15.80
2019-01-25T20:03:27.026Z,14.57
2019-01-25T20:06:00.605Z,17.37
2019-01-25T20:08:32.965Z,17.10
2019-01-25T20:11:06.889Z,13.80
2019-01-25T20:13:36.625Z,16.27
2019-01-25T20:16:06.105Z,14.50
2019-01-25T20:18:35.527Z,16.60
2019-01-25T20:21:15.488Z,14.70
2019-01-25T20:23:44.850Z,15.57
2019-01-25T20:26:14.287Z,17.80
2019-01-25T20:28:43.508Z,13.50
2019-01-25T20:31:12.967Z,15.07
2019-01-25T20:33:42.025Z,12.37
2019-01-25T20:36:11.186Z,15.10
2019-01-25T20:38:41.269Z,14.70
2019-01-25T20:41:11.326Z,20.17
2019-01-25T20:43:40.278Z,15.13
2019-01-25T20:46:09.698Z,19.13
2019-01-25T20:48:38.824Z,17.83
2019-01-25T20:51:08.166Z,18.23
2019-01-25T20:53:37.634Z,18.10
2019-01-25T20:56:08.419Z,18.23
2019-01-25T20:59:28.559Z,15.93
2019-01-25T21:02:01.484Z,19.97
2019-01-25T21:04:42.370Z,20.13
2019-01-25T21:07:12.891Z,18.03
2019-01-25T21:09:47.560Z,19.83
2019-01-25T21:12:17.024Z,21.13
2019-01-25T21:14:46.123Z,22.23
2019-01-25T21:17:17.907Z,26.17
2019-01-25T21:19:46.882Z,25.83
2019-01-25T21:22:19.034Z,27.07
2019-01-25T21:24:51.487Z,24.23
2019-01-25T21:27:23.583Z,27.03
2019-01-25T21:29:53.183Z,31.10
2019-01-25T21:32:23.937Z,29.43
2019-01-25T21:34:53.013Z,30.50
2019-01-25T21:37:24.037Z,28.80
2019-01-25T21:39:55.225Z,30.03
2019-01-25T21:42:25.840Z,26.73
2019-01-25T21:44:55.297Z,28.17
2019-01-25T21:47:27.357Z,27.03
2019-01-25T21:49:57.698Z,31.20
2019-01-25T21:52:27.006Z,26.73
2019-01-25T21:54:59.506Z,28.93
2019-01-25T21:57:29.241Z,32.70
2019-01-25T21:59:58.720Z,31.73
2019-01-25T22:02:27.861Z,33.57
2019-01-25T22:04:57.286Z,27.33
2019-01-25T22:07:37.662Z,31.10
2019-01-25T22:10:15.390Z,34.90
2019-01-25T22:12:44.820Z,29.83
2019-01-25T22:15:21.544Z,27.90
2019-01-25T22:17:50.820Z,30.03
2019-01-25T22:20:25.503Z,30.53
2019-01-25T22:22:55.022Z,26.73
2019-01-25T22:25:30.362Z,25.33
2019-01-25T22:27:59.680Z,27.97
2019-01-25T22:30:32.622Z,24.83
2019-01-25T22:33:03.300Z,31.03
2019-01-25T22:35:34.027Z,25.73
2019-01-25T22:38:06.663Z,20.30
2019-01-25T22:40:35.999Z,17.40
2019-01-25T22:43:06.241Z,18.80
2019-01-25T22:45:35.802Z,22.87
2019-01-25T22:48:09.420Z,27.63
2019-01-25T22:50:40.319Z,20.80
2019-01-25T22:53:28.926Z,21.63
2019-01-25T22:56:01.358Z,20.83
2019-01-25T22:58:31.000Z,20.20
2019-01-25T23:01:12.131Z,21.10
2019-01-25T23:03:53.106Z,20.93
2019-01-25T23:06:39.985Z,17.93
2019-01-25T23:09:17.767Z,15.60
2019-01-25T23:11:47.606Z,15.10
2019-01-25T23:14:18.785Z,15.77
2019-01-25T23:16:53.055Z,14.70
2019-01-25T23:19:25.407Z,14.33
2019-01-25T23:21:57.666Z,14.43
2019-01-25T23:24:27.245Z,18.73
2019-01-25T23:26:56.685Z,17.77
2019-01-25T23:29:26.033Z,17.30
2019-01-25T23:31:57.064Z,14.40
2019-01-25T23:34:31.344Z,16.57
2019-01-25T23:37:02.067Z,17.67
2019-01-25T23:39:33.105Z,15.63
2019-01-25T23:42:04.145Z,14.17
2019-01-25T23:44:36.618Z,17.07
2019-01-25T23:47:06.605Z,15.50
2019-01-25T23:49:36.075Z,16.37
2019-01-25T23:52:05.415Z,20.40
2019-01-25T23:57:15.516Z,20.13
2019-01-25T23:59:44.555Z,15.97
